sensor_id;sensor_type;location;lat;lon;timestamp;P1;durP1;ratioP1;P2;durP2;ratioP2
52798;SDS011;38667;42.872;74.622;2023-12-20T00:00:37;181.87;;;64.50;;
52798;SDS011;38667;42.872;74.622;2023-12-20T00:03:04;155.40;;;62.07;;
52798;SDS011;38667;42.872;74.622;2023-12-20T00:05:32;160.27;;;60.43;;
52798;SDS011;38667;42.872;74.622;2023-12-20T00:07:58;262.60;;;78.03;;
52798;SDS011;38667;42.872;74.622;2023-12-20T00:10:24;262.53;;;84.63;;
52798;SDS011;38667;42.872;74.622;2023-12-20T00:12:51;193.50;;;67.70;;
52798;SDS011;38667;42.872;74.622;2023-12-20T00:15:17;161.13;;;57.90;;
52798;SDS011;38667;42.872;74.622;2023-12-20T00:17:43;136.27;;;53.87;;
52798;SDS011;38667;42.872;74.622;2023-12-20T00:20:10;170.30;;;59.67;;
52798;SDS011;38667;42.872;74.622;2023-12-20T00:22:38;166.10;;;60.83;;
52798;SDS011;38667;42.872;74.622;2023-12-20T00:25:04;137.90;;;51.93;;
52798;SDS011;38667;42.872;74.622;2023-12-20T00:27:31;150.03;;;56.53;;
52798;SDS011;38667;42.872;74.622;2023-12-20T00:29:58;142.17;;;54.47;;
52798;SDS011;38667;42.872;74.622;2023-12-20T00:32:24;139.00;;;54.80;;
52798;SDS011;38667;42.872;74.622;2023-12-20T00:34:50;148.30;;;56.30;;
52798;SDS011;38667;42.872;74.622;2023-12-20T00:37:17;149.90;;;56.47;;
52798;SDS011;38667;42.872;74.622;2023-12-20T00:39:45;143.20;;;54.33;;
52798;SDS011;38667;42.872;74.622;2023-12-20T00:42:11;135.23;;;53.47;;
52798;SDS011;38667;42.872;74.622;2023-12-20T00:44:37;147.03;;;57.47;;
52798;SDS011;38667;42.872;74.622;2023-12-20T00:47:04;155.80;;;56.50;;
52798;SDS011;38667;42.872;74.622;2023-12-20T00:49:30;193.20;;;71.33;;
52798;SDS011;38667;42.872;74.622;2023-12-20T00:51:56;185.70;;;66.73;;
52798;SDS011;38667;42.872;74.622;2023-12-20T00:54:23;130.07;;;50.70;;
52798;SDS011;38667;42.872;74.622;2023-12-20T00:56:51;124.93;;;48.17;;
52798;SDS011;38667;42.872;74.622;2023-12-20T00:59:17;139.67;;;53.57;;
52798;SDS011;38667;42.872;74.622;2023-12-20T01:01:43;226.27;;;73.03;;
52798;SDS011;38667;42.872;74.622;2023-12-20T01:04:10;146.27;;;56.67;;
52798;SDS011;38667;42.872;74.622;2023-12-20T01:06:36;141.43;;;55.17;;
52798;SDS011;38667;42.872;74.622;2023-12-20T01:09:02;238.83;;;73.80;;
52798;SDS011;38667;42.872;74.622;2023-12-20T01:11:29;142.87;;;52.23;;
52798;SDS011;38667;42.872;74.622;2023-12-20T01:13:57;135.70;;;50.63;;
52798;SDS011;38667;42.872;74.622;2023-12-20T01:16:24;141.67;;;52.70;;
52798;SDS011;38667;42.872;74.622;2023-12-20T01:18:50;182.50;;;59.40;;
52798;SDS011;38667;42.872;74.622;2023-12-20T01:21:16;129.50;;;51.03;;
52798;SDS011;38667;42.872;74.622;2023-12-20T01:23:43;171.07;;;57.33;;
52798;SDS011;38667;42.872;74.622;2023-12-20T01:26:09;134.13;;;53.03;;
52798;SDS011;38667;42.872;74.622;2023-12-20T01:28:35;134.27;;;49.87;;
52798;SDS011;38667;42.872;74.622;2023-12-20T01:31:04;132.83;;;50.60;;
52798;SDS011;38667;42.872;74.622;2023-12-20T01:33:31;142.83;;;53.00;;
52798;SDS011;38667;42.872;74.622;2023-12-20T01:35:57;180.33;;;61.60;;
52798;SDS011;38667;42.872;74.622;2023-12-20T01:38:23;134.17;;;52.67;;
52798;SDS011;38667;42.872;74.622;2023-12-20T01:40:50;146.33;;;55.67;;
52798;SDS011;38667;42.872;74.622;2023-12-20T01:43:16;159.20;;;56.13;;
52798;SDS011;38667;42.872;74.622;2023-12-20T01:45:42;162.07;;;55.70;;
52798;SDS011;38667;42.872;74.622;2023-12-20T01:48:10;132.83;;;52.13;;
52798;SDS011;38667;42.872;74.622;2023-12-20T01:50:37;126.53;;;49.93;;
52798;SDS011;38667;42.872;74.622;2023-12-20T01:53:05;116.37;;;48.83;;
52798;SDS011;38667;42.872;74.622;2023-12-20T01:55:34;129.00;;;49.43;;
52798;SDS011;38667;42.872;74.622;2023-12-20T01:58:03;123.73;;;49.23;;
52798;SDS011;38667;42.872;74.622;2023-12-20T02:00:30;116.37;;;45.23;;
52798;SDS011;38667;42.872;74.622;2023-12-20T02:02:57;113.20;;;45.63;;
52798;SDS011;38667;42.872;74.622;2023-12-20T02:05:28;119.40;;;46.27;;
52798;SDS011;38667;42.872;74.622;2023-12-20T02:07:55;116.10;;;44.67;;
52798;SDS011;38667;42.872;74.622;2023-12-20T02:10:21;123.07;;;46.93;;
52798;SDS011;38667;42.872;74.622;2023-12-20T02:12:48;133.47;;;49.17;;
52798;SDS011;38667;42.872;74.622;2023-12-20T02:15:14;127.93;;;50.47;;
52798;SDS011;38667;42.872;74.622;2023-12-20T02:17:41;135.97;;;50.23;;
52798;SDS011;38667;42.872;74.622;2023-12-20T02:20:08;148.77;;;53.43;;
52798;SDS011;38667;42.872;74.622;2023-12-20T02:22:36;148.80;;;54.67;;
52798;SDS011;38667;42.872;74.622;2023-12-20T02:25:02;162.87;;;55.30;;
52798;SDS011;38667;42.872;74.622;2023-12-20T02:27:29;153.17;;;57.33;;
52798;SDS011;38667;42.872;74.622;2023-12-20T02:29:56;152.40;;;55.17;;
52798;SDS011;38667;42.872;74.622;2023-12-20T02:32:22;151.60;;;55.33;;
52798;SDS011;38667;42.872;74.622;2023-12-20T02:34:50;154.43;;;53.33;;
52798;SDS011;38667;42.872;74.622;2023-12-20T02:37:16;152.77;;;54.63;;
52798;SDS011;38667;42.872;74.622;2023-12-20T02:39:45;137.87;;;52.53;;
52798;SDS011;38667;42.872;74.622;2023-12-20T02:42:11;131.90;;;53.07;;
52798;SDS011;38667;42.872;74.622;2023-12-20T02:44:37;149.27;;;56.30;;
52798;SDS011;38667;42.872;74.622;2023-12-20T02:47:04;162.53;;;61.70;;
52798;SDS011;38667;42.872;74.622;2023-12-20T02:49:30;181.77;;;60.40;;
52798;SDS011;38667;42.872;74.622;2023-12-20T02:51:57;189.47;;;64.10;;
52798;SDS011;38667;42.872;74.622;2023-12-20T02:54:23;181.93;;;62.87;;
52798;SDS011;38667;42.872;74.622;2023-12-20T02:56:51;180.43;;;63.23;;
52798;SDS011;38667;42.872;74.622;2023-12-20T02:59:17;190.80;;;65.73;;
52798;SDS011;38667;42.872;74.622;2023-12-20T03:01:44;178.00;;;65.13;;
52798;SDS011;38667;42.872;74.622;2023-12-20T03:04:11;147.47;;;50.80;;
52798;SDS011;38667;42.872;74.622;2023-12-20T03:06:38;128.70;;;46.33;;
52798;SDS011;38667;42.872;74.622;2023-12-20T03:09:04;139.10;;;46.00;;
52798;SDS011;38667;42.872;74.622;2023-12-20T03:11:30;129.17;;;44.67;;
52798;SDS011;38667;42.872;74.622;2023-12-20T03:13:58;129.53;;;44.97;;
52798;SDS011;38667;42.872;74.622;2023-12-20T03:16:25;133.03;;;45.83;;
52798;SDS011;38667;42.872;74.622;2023-12-20T03:18:51;124.07;;;46.80;;
52798;SDS011;38667;42.872;74.622;2023-12-20T03:21:17;141.97;;;44.00;;
52798;SDS011;38667;42.872;74.622;2023-12-20T03:23:44;131.70;;;44.80;;
52798;SDS011;38667;42.872;74.622;2023-12-20T03:26:11;138.90;;;44.57;;
52798;SDS011;38667;42.872;74.622;2023-12-20T03:28:37;142.30;;;46.37;;
52798;SDS011;38667;42.872;74.622;2023-12-20T03:31:05;131.97;;;45.07;;
52798;SDS011;38667;42.872;74.622;2023-12-20T03:33:31;137.67;;;44.87;;
52798;SDS011;38667;42.872;74.622;2023-12-20T03:35:58;132.23;;;44.20;;
52798;SDS011;38667;42.872;74.622;2023-12-20T03:38:24;134.07;;;43.77;;
52798;SDS011;38667;42.872;74.622;2023-12-20T03:40:51;140.77;;;45.23;;
52798;SDS011;38667;42.872;74.622;2023-12-20T03:43:17;123.43;;;43.97;;
52798;SDS011;38667;42.872;74.622;2023-12-20T03:45:43;128.43;;;46.90;;
52798;SDS011;38667;42.872;74.622;2023-12-20T03:48:12;130.13;;;46.83;;
52798;SDS011;38667;42.872;74.622;2023-12-20T03:50:38;140.47;;;46.67;;
52798;SDS011;38667;42.872;74.622;2023-12-20T03:53:04;126.87;;;44.50;;
52798;SDS011;38667;42.872;74.622;2023-12-20T03:55:31;120.57;;;44.03;;
52798;SDS011;38667;42.872;74.622;2023-12-20T03:57:57;123.40;;;43.80;;
52798;SDS011;38667;42.872;74.622;2023-12-20T04:00:23;112.30;;;41.73;;
52798;SDS011;38667;42.872;74.622;2023-12-20T04:02:50;112.97;;;40.13;;
52798;SDS011;38667;42.872;74.622;2023-12-20T04:05:18;120.23;;;40.67;;
52798;SDS011;38667;42.872;74.622;2023-12-20T04:07:44;99.07;;;35.73;;
52798;SDS011;38667;42.872;74.622;2023-12-20T04:10:10;93.57;;;35.03;;
52798;SDS011;38667;42.872;74.622;2023-12-20T04:12:37;101.37;;;37.50;;
52798;SDS011;38667;42.872;74.622;2023-12-20T04:15:03;85.53;;;33.03;;
52798;SDS011;38667;42.872;74.622;2023-12-20T04:17:30;88.63;;;33.53;;
52798;SDS011;38667;42.872;74.622;2023-12-20T04:19:57;87.73;;;32.43;;
52798;SDS011;38667;42.872;74.622;2023-12-20T04:22:25;82.60;;;31.63;;
52798;SDS011;38667;42.872;74.622;2023-12-20T04:24:51;86.83;;;32.47;;
52798;SDS011;38667;42.872;74.622;2023-12-20T04:27:18;79.97;;;32.80;;
52798;SDS011;38667;42.872;74.622;2023-12-20T04:29:44;78.77;;;31.67;;
52798;SDS011;38667;42.872;74.622;2023-12-20T04:32:10;81.77;;;32.60;;
52798;SDS011;38667;42.872;74.622;2023-12-20T04:34:37;84.77;;;30.50;;
52798;SDS011;38667;42.872;74.622;2023-12-20T04:37:03;71.97;;;30.60;;
52798;SDS011;38667;42.872;74.622;2023-12-20T04:39:32;73.33;;;30.73;;
52798;SDS011;38667;42.872;74.622;2023-12-20T04:41:58;65.67;;;28.83;;
52798;SDS011;38667;42.872;74.622;2023-12-20T04:44:25;73.63;;;28.40;;
52798;SDS011;38667;42.872;74.622;2023-12-20T04:46:51;72.60;;;30.07;;
52798;SDS011;38667;42.872;74.622;2023-12-20T04:49:17;64.87;;;28.73;;
52798;SDS011;38667;42.872;74.622;2023-12-20T04:51:44;71.00;;;29.53;;
52798;SDS011;38667;42.872;74.622;2023-12-20T04:54:10;72.93;;;29.57;;
52798;SDS011;38667;42.872;74.622;2023-12-20T04:56:38;72.07;;;27.80;;
52798;SDS011;38667;42.872;74.622;2023-12-20T04:59:04;67.37;;;29.03;;
52798;SDS011;38667;42.872;74.622;2023-12-20T05:01:31;66.80;;;28.23;;
52798;SDS011;38667;42.872;74.622;2023-12-20T05:03:57;68.53;;;26.80;;
52798;SDS011;38667;42.872;74.622;2023-12-20T05:06:23;64.47;;;28.30;;
52798;SDS011;38667;42.872;74.622;2023-12-20T05:08:50;65.77;;;27.27;;
52798;SDS011;38667;42.872;74.622;2023-12-20T05:11:16;62.87;;;27.73;;
52798;SDS011;38667;42.872;74.622;2023-12-20T05:13:44;66.23;;;25.87;;
52798;SDS011;38667;42.872;74.622;2023-12-20T05:16:10;64.83;;;26.90;;
52798;SDS011;38667;42.872;74.622;2023-12-20T05:18:37;80.20;;;33.83;;
52798;SDS011;38667;42.872;74.622;2023-12-20T05:21:03;91.07;;;38.70;;
52798;SDS011;38667;42.872;74.622;2023-12-20T05:23:30;94.33;;;42.77;;
52798;SDS011;38667;42.872;74.622;2023-12-20T05:25:56;107.57;;;48.83;;
52798;SDS011;38667;42.872;74.622;2023-12-20T05:28:22;102.30;;;47.07;;
52798;SDS011;38667;42.872;74.622;2023-12-20T05:30:50;131.77;;;55.83;;
52798;SDS011;38667;42.872;74.622;2023-12-20T05:33:17;162.27;;;71.93;;
52798;SDS011;38667;42.872;74.622;2023-12-20T05:35:43;187.00;;;83.47;;
52798;SDS011;38667;42.872;74.622;2023-12-20T05:38:09;181.70;;;85.33;;
52798;SDS011;38667;42.872;74.622;2023-12-20T05:40:36;200.57;;;89.30;;
52798;SDS011;38667;42.872;74.622;2023-12-20T05:43:02;204.50;;;92.13;;
52798;SDS011;38667;42.872;74.622;2023-12-20T05:45:29;200.87;;;87.60;;
52798;SDS011;38667;42.872;74.622;2023-12-20T05:47:56;176.60;;;78.40;;
52798;SDS011;38667;42.872;74.622;2023-12-20T05:50:23;197.50;;;88.57;;
52798;SDS011;38667;42.872;74.622;2023-12-20T05:52:49;192.10;;;82.33;;
52798;SDS011;38667;42.872;74.622;2023-12-20T05:55:15;194.73;;;78.97;;
52798;SDS011;38667;42.872;74.622;2023-12-20T05:57:42;237.43;;;95.07;;
52798;SDS011;38667;42.872;74.622;2023-12-20T06:00:09;223.47;;;90.63;;
52798;SDS011;38667;42.872;74.622;2023-12-20T06:02:36;233.07;;;89.57;;
52798;SDS011;38667;42.872;74.622;2023-12-20T06:05:04;256.07;;;98.43;;
52798;SDS011;38667;42.872;74.622;2023-12-20T06:07:31;205.83;;;84.43;;
52798;SDS011;38667;42.872;74.622;2023-12-20T06:09:57;220.97;;;87.20;;
52798;SDS011;38667;42.872;74.622;2023-12-20T06:12:23;201.40;;;80.97;;
52798;SDS011;38667;42.872;74.622;2023-12-20T06:14:50;189.80;;;76.87;;
52798;SDS011;38667;42.872;74.622;2023-12-20T06:17:16;187.53;;;77.30;;
52798;SDS011;38667;42.872;74.622;2023-12-20T06:19:42;212.50;;;82.17;;
52798;SDS011;38667;42.872;74.622;2023-12-20T06:22:10;188.00;;;75.47;;
52798;SDS011;38667;42.872;74.622;2023-12-20T06:24:37;197.93;;;72.07;;
52798;SDS011;38667;42.872;74.622;2023-12-20T06:27:03;171.80;;;62.00;;
52798;SDS011;38667;42.872;74.622;2023-12-20T06:29:30;178.60;;;66.43;;
52798;SDS011;38667;42.872;74.622;2023-12-20T06:31:56;202.37;;;75.50;;
52798;SDS011;38667;42.872;74.622;2023-12-20T06:34:22;195.03;;;69.27;;
52798;SDS011;38667;42.872;74.622;2023-12-20T06:36:49;187.00;;;69.43;;
52798;SDS011;38667;42.872;74.622;2023-12-20T06:39:16;185.90;;;71.13;;
52798;SDS011;38667;42.872;74.622;2023-12-20T06:41:43;197.03;;;82.40;;
52798;SDS011;38667;42.872;74.622;2023-12-20T06:44:09;196.10;;;86.93;;
52798;SDS011;38667;42.872;74.622;2023-12-20T06:46:35;182.03;;;81.50;;
52798;SDS011;38667;42.872;74.622;2023-12-20T06:49:02;188.97;;;85.70;;
52798;SDS011;38667;42.872;74.622;2023-12-20T06:51:28;169.03;;;76.10;;
52798;SDS011;38667;42.872;74.622;2023-12-20T06:53:54;171.30;;;76.23;;
52798;SDS011;38667;42.872;74.622;2023-12-20T06:56:22;150.70;;;70.50;;
52798;SDS011;38667;42.872;74.622;2023-12-20T06:58:49;145.33;;;66.53;;
52798;SDS011;38667;42.872;74.622;2023-12-20T07:01:15;174.33;;;72.17;;
52798;SDS011;38667;42.872;74.622;2023-12-20T07:03:41;188.30;;;82.97;;
52798;SDS011;38667;42.872;74.622;2023-12-20T07:06:08;215.27;;;84.67;;
52798;SDS011;38667;42.872;74.622;2023-12-20T07:08:34;185.77;;;74.63;;
52798;SDS011;38667;42.872;74.622;2023-12-20T07:11:01;161.57;;;68.53;;
52798;SDS011;38667;42.872;74.622;2023-12-20T07:13:29;145.53;;;64.13;;
52798;SDS011;38667;42.872;74.622;2023-12-20T07:15:55;177.50;;;71.17;;
52798;SDS011;38667;42.872;74.622;2023-12-20T07:18:22;170.80;;;75.87;;
52798;SDS011;38667;42.872;74.622;2023-12-20T07:20:48;144.07;;;61.37;;
52798;SDS011;38667;42.872;74.622;2023-12-20T07:23:14;89.13;;;42.33;;
52798;SDS011;38667;42.872;74.622;2023-12-20T07:25:41;99.83;;;41.90;;
52798;SDS011;38667;42.872;74.622;2023-12-20T07:28:07;80.40;;;37.67;;
52798;SDS011;38667;42.872;74.622;2023-12-20T07:30:35;153.80;;;48.97;;
52798;SDS011;38667;42.872;74.622;2023-12-20T07:33:01;106.43;;;41.33;;
52798;SDS011;38667;42.872;74.622;2023-12-20T07:35:28;129.83;;;47.67;;
52798;SDS011;38667;42.872;74.622;2023-12-20T07:37:54;82.67;;;37.27;;
52798;SDS011;38667;42.872;74.622;2023-12-20T07:40:21;60.00;;;28.43;;
52798;SDS011;38667;42.872;74.622;2023-12-20T07:42:47;58.27;;;30.60;;
52798;SDS011;38667;42.872;74.622;2023-12-20T07:45:13;89.97;;;37.63;;
52798;SDS011;38667;42.872;74.622;2023-12-20T07:47:42;91.03;;;38.03;;
52798;SDS011;38667;42.872;74.622;2023-12-20T07:50:08;62.27;;;30.23;;
52798;SDS011;38667;42.872;74.622;2023-12-20T07:52:35;57.87;;;27.43;;
52798;SDS011;38667;42.872;74.622;2023-12-20T07:55:01;91.50;;;39.43;;
52798;SDS011;38667;42.872;74.622;2023-12-20T07:57:28;64.20;;;31.87;;
52798;SDS011;38667;42.872;74.622;2023-12-20T07:59:55;71.53;;;32.60;;
52798;SDS011;38667;42.872;74.622;2023-12-20T08:02:21;116.30;;;40.63;;
52798;SDS011;38667;42.872;74.622;2023-12-20T08:04:49;64.40;;;30.40;;
52798;SDS011;38667;42.872;74.622;2023-12-20T08:07:15;53.20;;;26.50;;
52798;SDS011;38667;42.872;74.622;2023-12-20T08:09:42;75.10;;;31.80;;
52798;SDS011;38667;42.872;74.622;2023-12-20T08:12:08;99.70;;;37.77;;
52798;SDS011;38667;42.872;74.622;2023-12-20T08:14:34;69.97;;;33.40;;
52798;SDS011;38667;42.872;74.622;2023-12-20T08:17:00;74.13;;;33.67;;
52798;SDS011;38667;42.872;74.622;2023-12-20T08:19:27;87.33;;;36.07;;
52798;SDS011;38667;42.872;74.622;2023-12-20T08:21:55;81.63;;;35.00;;
52798;SDS011;38667;42.872;74.622;2023-12-20T08:24:22;130.20;;;43.30;;
52798;SDS011;38667;42.872;74.622;2023-12-20T08:26:48;85.47;;;37.17;;
52798;SDS011;38667;42.872;74.622;2023-12-20T08:29:14;72.50;;;34.13;;
52798;SDS011;38667;42.872;74.622;2023-12-20T08:31:41;43.93;;;23.10;;
52798;SDS011;38667;42.872;74.622;2023-12-20T08:34:07;39.30;;;21.80;;
52798;SDS011;38667;42.872;74.622;2023-12-20T08:36:34;43.13;;;21.77;;
52798;SDS011;38667;42.872;74.622;2023-12-20T08:39:01;29.13;;;16.27;;
52798;SDS011;38667;42.872;74.622;2023-12-20T08:41:28;31.40;;;17.33;;
52798;SDS011;38667;42.872;74.622;2023-12-20T08:43:54;38.13;;;19.20;;
52798;SDS011;38667;42.872;74.622;2023-12-20T08:46:21;38.97;;;17.70;;
52798;SDS011;38667;42.872;74.622;2023-12-20T08:48:47;31.23;;;16.97;;
52798;SDS011;38667;42.872;74.622;2023-12-20T08:51:13;36.80;;;18.13;;
52798;SDS011;38667;42.872;74.622;2023-12-20T08:53:40;30.33;;;17.63;;
52798;SDS011;38667;42.872;74.622;2023-12-20T08:56:07;31.53;;;16.60;;
52798;SDS011;38667;42.872;74.622;2023-12-20T08:58:34;30.93;;;17.17;;
52798;SDS011;38667;42.872;74.622;2023-12-20T09:01:00;29.53;;;15.43;;
52798;SDS011;38667;42.872;74.622;2023-12-20T09:03:27;26.40;;;14.73;;
52798;SDS011;38667;42.872;74.622;2023-12-20T09:05:53;25.57;;;14.30;;
52798;SDS011;38667;42.872;74.622;2023-12-20T09:08:19;25.17;;;14.60;;
52798;SDS011;38667;42.872;74.622;2023-12-20T09:10:46;34.77;;;17.73;;
52798;SDS011;38667;42.872;74.622;2023-12-20T09:13:13;30.97;;;17.67;;
52798;SDS011;38667;42.872;74.622;2023-12-20T09:15:40;40.27;;;19.37;;
52798;SDS011;38667;42.872;74.622;2023-12-20T09:18:06;31.17;;;17.87;;
52798;SDS011;38667;42.872;74.622;2023-12-20T09:20:33;31.57;;;17.60;;
52798;SDS011;38667;42.872;74.622;2023-12-20T09:22:59;34.10;;;18.17;;
52798;SDS011;38667;42.872;74.622;2023-12-20T09:25:26;33.47;;;17.53;;
52798;SDS011;38667;42.872;74.622;2023-12-20T09:27:52;36.13;;;17.83;;
52798;SDS011;38667;42.872;74.622;2023-12-20T09:30:20;35.83;;;16.90;;
52798;SDS011;38667;42.872;74.622;2023-12-20T09:32:47;34.37;;;17.30;;
52798;SDS011;38667;42.872;74.622;2023-12-20T09:35:13;37.13;;;18.03;;
52798;SDS011;38667;42.872;74.622;2023-12-20T09:37:40;38.73;;;16.70;;
52798;SDS011;38667;42.872;74.622;2023-12-20T09:40:06;31.37;;;17.40;;
52798;SDS011;38667;42.872;74.622;2023-12-20T09:42:37;32.87;;;16.80;;
52798;SDS011;38667;42.872;74.622;2023-12-20T09:45:08;27.93;;;15.23;;
52798;SDS011;38667;42.872;74.622;2023-12-20T09:47:36;31.03;;;15.40;;
52798;SDS011;38667;42.872;74.622;2023-12-20T09:50:03;32.13;;;15.83;;
52798;SDS011;38667;42.872;74.622;2023-12-20T09:52:30;33.33;;;15.30;;
52798;SDS011;38667;42.872;74.622;2023-12-20T09:54:59;31.80;;;15.23;;
52798;SDS011;38667;42.872;74.622;2023-12-20T09:57:26;32.73;;;16.40;;
52798;SDS011;38667;42.872;74.622;2023-12-20T09:59:53;33.30;;;15.87;;
52798;SDS011;38667;42.872;74.622;2023-12-20T10:02:19;31.30;;;14.93;;
52798;SDS011;38667;42.872;74.622;2023-12-20T10:04:50;28.93;;;16.43;;
52798;SDS011;38667;42.872;74.622;2023-12-20T10:07:17;34.37;;;18.50;;
52798;SDS011;38667;42.872;74.622;2023-12-20T10:09:43;41.50;;;19.10;;
52798;SDS011;38667;42.872;74.622;2023-12-20T10:12:10;34.83;;;18.27;;
52798;SDS011;38667;42.872;74.622;2023-12-20T10:14:38;30.83;;;17.90;;
52798;SDS011;38667;42.872;74.622;2023-12-20T10:17:05;34.73;;;17.93;;
52798;SDS011;38667;42.872;74.622;2023-12-20T10:19:31;42.23;;;22.13;;
52798;SDS011;38667;42.872;74.622;2023-12-20T10:22:03;37.53;;;19.00;;
52798;SDS011;38667;42.872;74.622;2023-12-20T10:24:30;49.20;;;22.53;;
52798;SDS011;38667;42.872;74.622;2023-12-20T10:27:02;44.70;;;21.23;;
52798;SDS011;38667;42.872;74.622;2023-12-20T10:29:31;52.37;;;21.53;;
52798;SDS011;38667;42.872;74.622;2023-12-20T10:31:58;63.60;;;28.33;;
52798;SDS011;38667;42.872;74.622;2023-12-20T10:34:24;82.47;;;32.70;;
52798;SDS011;38667;42.872;74.622;2023-12-20T10:36:52;75.23;;;28.77;;
52798;SDS011;38667;42.872;74.622;2023-12-20T10:39:20;77.23;;;31.47;;
52798;SDS011;38667;42.872;74.622;2023-12-20T10:41:47;82.03;;;33.23;;
52798;SDS011;38667;42.872;74.622;2023-12-20T10:44:13;87.03;;;38.80;;
52798;SDS011;38667;42.872;74.622;2023-12-20T10:46:40;81.87;;;38.43;;
52798;SDS011;38667;42.872;74.622;2023-12-20T10:49:07;85.20;;;40.47;;
52798;SDS011;38667;42.872;74.622;2023-12-20T10:51:35;36.67;;;18.10;;
52798;SDS011;38667;42.872;74.622;2023-12-20T10:54:02;25.47;;;14.13;;
52798;SDS011;38667;42.872;74.622;2023-12-20T10:56:31;22.07;;;12.03;;
52798;SDS011;38667;42.872;74.622;2023-12-20T10:58:58;19.53;;;11.63;;
52798;SDS011;38667;42.872;74.622;2023-12-20T11:01:27;21.00;;;10.90;;
52798;SDS011;38667;42.872;74.622;2023-12-20T11:03:55;16.43;;;10.33;;
52798;SDS011;38667;42.872;74.622;2023-12-20T11:06:26;16.70;;;9.53;;
52798;SDS011;38667;42.872;74.622;2023-12-20T11:09:03;20.07;;;11.07;;
52798;SDS011;38667;42.872;74.622;2023-12-20T11:11:42;18.93;;;11.00;;
52798;SDS011;38667;42.872;74.622;2023-12-20T11:14:22;26.53;;;11.47;;
52798;SDS011;38667;42.872;74.622;2023-12-20T11:17:05;19.30;;;10.00;;
52798;SDS011;38667;42.872;74.622;2023-12-20T11:19:32;19.53;;;10.70;;
52798;SDS011;38667;42.872;74.622;2023-12-20T11:22:01;22.83;;;10.63;;
52798;SDS011;38667;42.872;74.622;2023-12-20T11:24:28;26.20;;;12.33;;
52798;SDS011;38667;42.872;74.622;2023-12-20T11:26:59;24.30;;;13.03;;
52798;SDS011;38667;42.872;74.622;2023-12-20T11:29:32;25.67;;;12.70;;
52798;SDS011;38667;42.872;74.622;2023-12-20T11:32:00;26.83;;;12.40;;
52798;SDS011;38667;42.872;74.622;2023-12-20T11:34:27;26.00;;;12.83;;
52798;SDS011;38667;42.872;74.622;2023-12-20T11:36:59;25.80;;;12.77;;
52798;SDS011;38667;42.872;74.622;2023-12-20T11:39:27;22.40;;;11.23;;
52798;SDS011;38667;42.872;74.622;2023-12-20T11:41:56;20.20;;;10.70;;
52798;SDS011;38667;42.872;74.622;2023-12-20T11:44:29;23.37;;;12.23;;
52798;SDS011;38667;42.872;74.622;2023-12-20T11:46:56;23.57;;;12.07;;
52798;SDS011;38667;42.872;74.622;2023-12-20T11:49:23;24.07;;;11.37;;
52798;SDS011;38667;42.872;74.622;2023-12-20T11:51:49;24.47;;;11.90;;
52798;SDS011;38667;42.872;74.622;2023-12-20T11:54:16;24.60;;;12.10;;
52798;SDS011;38667;42.872;74.622;2023-12-20T11:56:42;23.30;;;11.90;;
52798;SDS011;38667;42.872;74.622;2023-12-20T11:59:10;30.00;;;13.17;;
52798;SDS011;38667;42.872;74.622;2023-12-20T12:01:36;29.53;;;13.00;;
52798;SDS011;38667;42.872;74.622;2023-12-20T12:04:03;28.90;;;12.60;;
52798;SDS011;38667;42.872;74.622;2023-12-20T12:06:29;21.83;;;11.47;;
52798;SDS011;38667;42.872;74.622;2023-12-20T12:08:56;23.50;;;11.73;;
52798;SDS011;38667;42.872;74.622;2023-12-20T12:11:22;31.37;;;13.70;;
52798;SDS011;38667;42.872;74.622;2023-12-20T12:13:49;31.77;;;12.20;;
52798;SDS011;38667;42.872;74.622;2023-12-20T12:16:18;23.73;;;11.73;;
52798;SDS011;38667;42.872;74.622;2023-12-20T12:18:45;24.07;;;10.57;;
52798;SDS011;38667;42.872;74.622;2023-12-20T12:21:20;17.40;;;8.83;;
52798;SDS011;38667;42.872;74.622;2023-12-20T12:23:46;18.13;;;9.47;;
52798;SDS011;38667;42.872;74.622;2023-12-20T12:26:12;29.47;;;12.67;;
52798;SDS011;38667;42.872;74.622;2023-12-20T12:28:39;43.67;;;19.10;;
52798;SDS011;38667;42.872;74.622;2023-12-20T12:31:06;38.00;;;16.23;;
52798;SDS011;38667;42.872;74.622;2023-12-20T12:33:35;31.47;;;14.90;;
52798;SDS011;38667;42.872;74.622;2023-12-20T12:36:01;24.17;;;13.30;;
52798;SDS011;38667;42.872;74.622;2023-12-20T12:38:28;37.60;;;16.03;;
52798;SDS011;38667;42.872;74.622;2023-12-20T12:40:55;33.47;;;15.60;;
52798;SDS011;38667;42.872;74.622;2023-12-20T12:43:21;34.17;;;15.43;;
52798;SDS011;38667;42.872;74.622;2023-12-20T12:45:48;30.97;;;14.17;;
52798;SDS011;38667;42.872;74.622;2023-12-20T12:48:14;24.93;;;11.97;;
52798;SDS011;38667;42.872;74.622;2023-12-20T12:50:42;24.30;;;12.90;;
52798;SDS011;38667;42.872;74.622;2023-12-20T12:53:08;24.37;;;12.13;;
52798;SDS011;38667;42.872;74.622;2023-12-20T12:55:35;24.50;;;13.63;;
52798;SDS011;38667;42.872;74.622;2023-12-20T12:58:01;29.27;;;15.63;;
52798;SDS011;38667;42.872;74.622;2023-12-20T13:00:28;22.93;;;12.37;;
52798;SDS011;38667;42.872;74.622;2023-12-20T13:02:54;18.03;;;9.40;;
52798;SDS011;38667;42.872;74.622;2023-12-20T13:05:20;19.93;;;10.90;;
52798;SDS011;38667;42.872;74.622;2023-12-20T13:07:48;28.10;;;14.87;;
52798;SDS011;38667;42.872;74.622;2023-12-20T13:10:15;107.03;;;34.93;;
52798;SDS011;38667;42.872;74.622;2023-12-20T13:12:41;119.17;;;45.70;;
52798;SDS011;38667;42.872;74.622;2023-12-20T13:15:08;102.33;;;42.97;;
52798;SDS011;38667;42.872;74.622;2023-12-20T13:17:34;81.83;;;38.17;;
52798;SDS011;38667;42.872;74.622;2023-12-20T13:20:01;77.70;;;33.30;;
52798;SDS011;38667;42.872;74.622;2023-12-20T13:22:27;89.37;;;41.43;;
52798;SDS011;38667;42.872;74.622;2023-12-20T13:24:55;124.47;;;61.67;;
52798;SDS011;38667;42.872;74.622;2023-12-20T13:27:22;89.77;;;47.87;;
52798;SDS011;38667;42.872;74.622;2023-12-20T13:29:48;100.43;;;47.80;;
52798;SDS011;38667;42.872;74.622;2023-12-20T13:32:15;147.80;;;55.33;;
52798;SDS011;38667;42.872;74.622;2023-12-20T13:34:41;232.40;;;76.37;;
52798;SDS011;38667;42.872;74.622;2023-12-20T13:37:07;436.13;;;117.30;;
52798;SDS011;38667;42.872;74.622;2023-12-20T13:39:34;785.57;;;220.07;;
52798;SDS011;38667;42.872;74.622;2023-12-20T13:42:02;638.90;;;195.57;;
52798;SDS011;38667;42.872;74.622;2023-12-20T13:44:29;565.93;;;175.93;;
52798;SDS011;38667;42.872;74.622;2023-12-20T13:46:55;309.40;;;128.07;;
52798;SDS011;38667;42.872;74.622;2023-12-20T13:49:21;219.40;;;100.70;;
52798;SDS011;38667;42.872;74.622;2023-12-20T13:51:48;218.10;;;98.77;;
52798;SDS011;38667;42.872;74.622;2023-12-20T13:54:14;206.70;;;92.97;;
52798;SDS011;38667;42.872;74.622;2023-12-20T13:56:40;201.23;;;94.90;;
52798;SDS011;38667;42.872;74.622;2023-12-20T13:59:08;184.57;;;85.97;;
52798;SDS011;38667;42.872;74.622;2023-12-20T14:01:35;243.17;;;109.60;;